Flight Track Log - Related Links

Times and Time Zones

All times are in EDT time to prevent confusion due to time zone crossing. See the DLH859 flight status page for this flight to view local times or setup timezone preferences in your user account.

Time Position Orientation Groundspeed Altitude Reporting Facility
EDT Latitude Longitude Course Direction KTS MPH feet Rate Location/Type
Thu 04:12:15 AM 60.1705 11.0927 189° South  Level Estimated
Thu 04:13:15 AM 60.0766 11.0621 189° South  Level Estimated
Thu 04:14:15 AM 59.9828 11.0316 189° South  Level Estimated
Thu 04:15:15 AM 59.8890 11.0014 189° South  Level Estimated
Thu 04:16:15 AM 59.7952 10.9713 189° South  Level Estimated
Thu 04:17:15 AM 59.7013 10.9413 189° South  Level Estimated
Thu 04:18:15 AM 59.6075 10.9116 189° South  Level Estimated
Thu 04:19:15 AM 59.5136 10.8820 189° South  Level Estimated
Thu 04:20:15 AM 59.4197 10.8526 189° South  Level Estimated
Thu 04:21:15 AM 59.3259 10.8233 189° South  Level Estimated
Thu 04:22:15 AM 59.2320 10.7942 189° South  Level Estimated
Thu 04:23:15 AM 59.1381 10.7653 189° South  Level Estimated
Thu 04:24:15 AM 59.0442 10.7365 189° South  Level Estimated
Thu 04:25:15 AM 58.9503 10.7078 189° South  Level Estimated
Thu 04:26:15 AM 58.8564 10.6794 189° South  Level Estimated
Thu 04:27:15 AM 58.7625 10.6510 189° South  Level Estimated
Thu 04:28:15 AM 58.6686 10.6229 189° South  Level Estimated
Thu 04:29:15 AM 58.5747 10.5949 189° South  Level Estimated
Thu 04:30:15 AM 58.4808 10.5670 189° South  Level Estimated
Thu 04:31:15 AM 58.3868 10.5393 189° South  Level Estimated
Thu 04:32:15 AM 58.2929 10.5117 189° South  Level Estimated
Thu 04:33:15 AM 58.1990 10.4843 189° South  Level Estimated
Thu 04:34:15 AM 58.1050 10.4570 189° South  Level Estimated
Thu 04:35:15 AM 58.0111 10.4299 189° South  Level Estimated
Thu 04:36:15 AM 57.9171 10.4029 189° South  Level Estimated
Thu 04:37:15 AM 57.8231 10.3760 189° South  Level Estimated
Thu 04:38:15 AM 57.7292 10.3493 189° South  Level Estimated
Thu 04:39:15 AM 57.6352 10.3227 189° South  Level Estimated
Thu 04:40:15 AM 57.5412 10.2963 189° South  Level Estimated
Thu 04:41:15 AM 57.4472 10.2700 189° South  Level Estimated
Thu 04:42:15 AM 57.3532 10.2438 189° South  Level Estimated
Thu 04:43:15 AM 57.2592 10.2178 188° South  Level Estimated
Thu 04:44:15 AM 57.1652 10.1919 188° South  Level Estimated
Thu 04:45:15 AM 57.0712 10.1661 188° South  Level Estimated
Thu 04:46:15 AM 56.9772 10.1405 188° South  Level Estimated
Thu 04:47:15 AM 56.8831 10.1150 188° South  Level Estimated
Thu 04:48:15 AM 56.7891 10.0896 188° South  Level Estimated
Thu 04:49:15 AM 56.6951 10.0643 188° South  Level Estimated
Thu 04:50:15 AM 56.6011 10.0392 188° South  Level Estimated
Thu 04:51:15 AM 56.5070 10.0142 188° South  Level Estimated
Thu 04:52:15 AM 56.4130 9.9893 188° South  Level Estimated
Thu 04:53:15 AM 56.3189 9.9646 188° South  Level Estimated
Thu 04:54:15 AM 56.2248 9.9399 188° South  Level Estimated
Thu 04:55:15 AM 56.1308 9.9154 188° South  Level Estimated
Thu 04:56:15 AM 56.0367 9.8910 188° South  Level Estimated
Thu 04:57:15 AM 55.9426 9.8667 188° South  Level Estimated
Thu 04:58:15 AM 55.8486 9.8426 188° South  Level Estimated
Thu 04:59:15 AM 55.7545 9.8185 188° South  Level Estimated
Thu 05:00:15 AM 55.6604 9.7946 188° South  Level Estimated
Thu 05:01:15 AM 55.5663 9.7708 188° South  Level Estimated
Thu 05:02:15 AM 55.4722 9.7471 188° South  Level Estimated
Thu 05:03:15 AM 55.3781 9.7235 188° South  Level Estimated
Thu 05:04:15 AM 55.2840 9.7000 188° South  Level Estimated
Thu 05:05:15 AM 55.1899 9.6767 188° South  Level Estimated
Thu 05:06:15 AM 55.0958 9.6534 188° South  Level Estimated
Thu 05:07:15 AM 55.0017 9.6303 188° South  Level Estimated
Thu 05:08:15 AM 54.9076 9.6072 188° South  Level Estimated
Thu 05:09:15 AM 54.8134 9.5843 188° South  Level Estimated
Thu 05:10:15 AM 54.7193 9.5615 188° South  Level Estimated
Thu 05:11:15 AM 54.6252 9.5388 188° South  Level Estimated
Thu 05:12:15 AM 54.5310 9.5162 188° South  Level Estimated
Thu 05:13:15 AM 54.4369 9.4937 188° South  Level Estimated
Thu 05:14:15 AM 54.3427 9.4713 188° South  Level Estimated
Thu 05:15:15 AM 54.2486 9.4490 188° South  Level Estimated
Thu 05:16:15 AM 54.1544 9.4268 188° South  Level Estimated
Thu 05:17:15 AM 54.0603 9.4047 188° South  Level Estimated
Thu 05:18:15 AM 53.9661 9.3827 188° South  Level Estimated
Thu 05:19:15 AM 53.8719 9.3608 188° South  Level Estimated
Thu 05:20:15 AM 53.7778 9.3390 188° South  Level Estimated
Thu 05:21:15 AM 53.6836 9.3173 188° South  Level Estimated
Thu 05:22:15 AM 53.5894 9.2956 188° South  Level Estimated
Thu 05:23:15 AM 53.4952 9.2741 188° South  Level Estimated
Thu 05:24:15 AM 53.4011 9.2527 188° South  Level Estimated
Thu 05:25:15 AM 53.3069 9.2314 188° South  Level Estimated
Thu 05:26:15 AM 53.2127 9.2102 188° South  Level Estimated
Thu 05:27:15 AM 53.1185 9.1890 188° South  Level Estimated
Thu 05:28:15 AM 53.0243 9.1680 188° South  Level Estimated
Thu 05:29:15 AM 52.9301 9.1471 188° South  Level Estimated
Thu 05:30:15 AM 52.8358 9.1262 188° South  Level Estimated
Thu 05:31:15 AM 52.7416 9.1054 188° South  Level Estimated
Thu 05:32:15 AM 52.6474 9.0848 188° South  Level Estimated
Thu 05:33:15 AM 52.5532 9.0642 188° South  Level Estimated
Thu 05:34:15 AM 52.4590 9.0437 188° South  Level Estimated
Thu 05:35:15 AM 52.3647 9.0232 188° South  Level Estimated
Thu 05:36:15 AM 52.2705 9.0029 188° South  Level Estimated
Thu 05:37:15 AM 52.1763 8.9827 187° South  Level Estimated
Thu 05:38:15 AM 52.0821 8.9625 187° South  Level Estimated
Thu 05:39:15 AM 51.9878 8.9425 187° South  Level Estimated
Thu 05:40:15 AM 51.8936 8.9225 187° South  Level Estimated
Thu 05:41:15 AM 51.7993 8.9026 187° South  Level Estimated
Thu 05:42:15 AM 51.7051 8.8827 187° South  Level Estimated
Thu 05:43:15 AM 51.6108 8.8630 187° South  Level Estimated
Thu 05:44:15 AM 51.5165 8.8434 187° South  Level Estimated
Thu 05:45:15 AM 51.4223 8.8238 187° South  Level Estimated
Thu 05:46:15 AM 51.3280 8.8043 187° South  Level Estimated
Thu 05:47:15 AM 51.2338 8.7849 187° South  Level Estimated
Thu 05:48:15 AM 51.1395 8.7656 187° South  Level Estimated
Thu 05:49:15 AM 51.0452 8.7463 187° South  Level Estimated
Thu 05:50:15 AM 50.9509 8.7271 187° South  Level Estimated
Thu 05:51:15 AM 50.8567 8.7080 187° South  Level Estimated
Thu 05:52:15 AM 50.7624 8.6890 187° South  Level Estimated
Thu 05:53:15 AM 50.6681 8.6700 187° South  Level Estimated
Thu 05:54:15 AM 50.5738 8.6512 187° South  Level Estimated
Thu 05:55:15 AM 50.4795 8.6324 187° South  Level Estimated
Thu 05:56:15 AM 50.3852 8.6137 187° South  Level Estimated
Thu 05:57:15 AM 50.2909 8.5950 187° South  Level Estimated
Thu 05:58:15 AM 50.1966 8.5765 187° South  Level Estimated
Thu 05:59:15 AM 50.1023 8.5580 187° South  Level Estimated
Thu 06:00:15 AM 50.0080 8.5395 North  Level Estimated
Thu 06:01:15 AM 50.1023 8.5580 187° South  Level Estimated
Thu 06:02:15 AM 50.0080 8.5395 North  Level Estimated
Thu 06:03:15 AM 50.1023 8.5580 187° South  Level Estimated
Thu 06:04:15 AM 50.0080 8.5395 North  Level Estimated
Thu 06:05:15 AM 50.1023 8.5580 187° South  Level Estimated
Thu 06:06:15 AM 50.0080 8.5395 North  Level Estimated
Thu 06:07:15 AM 50.1023 8.5580 187° South  Level Estimated
Thu 06:08:15 AM 50.0080 8.5395 North  Level Estimated
Thu 06:09:15 AM 50.1023 8.5580 187° South  Level Estimated
Thu 06:10:15 AM 50.0080 8.5395 North  Level Estimated
Thu 06:11:15 AM 50.1023 8.5580 187° South  Level Estimated
Thu 06:12:15 AM 50.0080 8.5395 North  Level Estimated
Thu 06:13:15 AM 50.1023 8.5580 North  Level Estimated

Login

Don't have an account? Register now (free) for customized features, flight alerts, and more!